• Join FlightAware (Why Join?)
  • Login
  • US Flag 
11:04AM EDT


 

Airport Tracker/Info


-or-


 

Live Flight TrackerFlight Track Log ✈ AAL1624 ✈ 29-Jul-2013 ✈ KLAX - KORD

Flight Track Log - Related Links

Times and Time Zones

All times are in EDT time to prevent confusion due to time zone crossing. See the AAL1624 flight status page for this flight to view local times or setup timezone preferences in your user account.

Time Position Orientation Groundspeed Altitude Reporting Facility
EDT Latitude Longitude Course Direction KTS MPH feet Rate Location/Type
06:23PM 33.9333 -118.4550 59° Northeast 181 208 1,800  Level Los Angeles Center
06:24PM 33.9108 -118.5306 250° West 225 259 3,100 1,560 Climbing Los Angeles Center
06:25PM 34.1437 -118.0460 59° Northeast  Level FlightAware Approximate
06:25PM 33.8733 -118.6036 238° Southwest 266 306 5,100  Level Los Angeles Center
06:26PM 34.2138 -117.9058 59° Northeast  Level FlightAware Approximate
06:26PM 33.8181 -118.5614 148° Southeast 275 316 7,100  Level Los Angeles Center
06:27PM 34.2898 -117.7711 46° Northeast  Level FlightAware Approximate
06:28PM 34.3711 -117.6412 59° Northeast  Level FlightAware Approximate
06:28PM 33.8697 -118.4875 50° Northeast 286 329 9,600  Level Los Angeles Center
06:29PM 34.4453 -117.5095 59° Northeast  Level FlightAware Approximate
06:29PM 33.9350 -118.4300 36° Northeast 294 338 12,000  Level Los Angeles Center
06:30PM 33.9872 -118.3392 55° Northeast 325 374 13,500 1,620 Climbing Los Angeles Center
06:31PM 34.0475 -118.2328 56° Northeast 367 422 15,400 1,980 Climbing Los Angeles Center
06:32PM 34.1100 -118.1214 56° Northeast 391 450 17,600 1,980 Climbing Los Angeles Center
06:33PM 34.1758 -118.0058 55° Northeast 409 471 19,600 1,980 Climbing Los Angeles Center
06:34PM 34.2561 -117.8614 56° Northeast 425 489 21,700 1,740 Climbing Los Angeles Center
06:35PM 34.3256 -117.7372 56° Northeast 440 506 23,300 1,500 Climbing Los Angeles Center
06:36PM 34.4275 -117.6311 41° Northeast 469 540 24,800 1,500 Climbing Los Angeles Center
06:37PM 34.5428 -117.5575 28° Northeast 471 542 26,400 1,380 Climbing Los Angeles Center
06:38PM 34.6281 -117.4317 51° Northeast 484 557 27,700 1,200 Climbing Los Angeles Center
06:39PM 34.7122 -117.3025 52° Northeast 490 564 29,000 1,320 Climbing Los Angeles Center
06:40PM 34.7875 -117.1628 57° Northeast 502 578 30,500 1,500 Climbing Los Angeles Center
06:41PM 34.8700 -116.9914 60° Northeast 494 568 32,200 1,380 Climbing Los Angeles Center
06:42PM 34.9453 -116.8525 56° Northeast 492 566 33,400 1,020 Climbing Los Angeles Center
06:43PM 35.0361 -116.7242 49° Northeast 500 575 34,400 840 Climbing Los Angeles Center
06:44PM 35.1256 -116.5931 50° Northeast 505 581 35,200 780 Climbing Los Angeles Center
06:45PM 35.2133 -116.4603 51° Northeast 505 581 36,100 720 Climbing Los Angeles Center
06:46PM 35.3003 -116.3258 52° Northeast 505 581 36,800 420 Climbing Los Angeles Center
06:47PM 35.4103 -116.1661 50° Northeast 511 588 37,000 60 Climbing Los Angeles Center
06:48PM 35.5006 -116.0311 51° Northeast 512 589 37,000  Level Los Angeles Center
06:49PM 35.6161 -115.8575 51° Northeast 512 589 37,000  Level Los Angeles Center
06:50PM 35.7067 -115.7281 49° Northeast 503 579 37,000  Level Los Angeles Center
06:51PM 35.7964 -115.5928 51° Northeast 508 585 37,000  Level Los Angeles Center
06:53PM 35.8861 -115.4556 51° Northeast 514 592 37,000  Level Los Angeles Center
06:54PM 35.9753 -115.3186 51° Northeast 517 595 37,000  Level Los Angeles Center
06:55PM 36.0814 -115.1525 52° Northeast 518 596 37,000  Level Los Angeles Center
06:56PM 36.1814 -115.0281 45° Northeast 515 593 37,000  Level Los Angeles Center
06:57PM 36.2811 -114.9019 46° Northeast 516 594 37,000  Level Los Angeles Center
06:58PM 36.3808 -114.7761 45° Northeast 515 593 37,000  Level Los Angeles Center
06:59PM 36.4786 -114.6478 47° Northeast 514 592 37,000  Level Los Angeles Center
07:00PM 36.5944 -114.4944 47° Northeast 510 587 37,000  Level Los Angeles Center
07:01PM 36.6931 -114.3647 47° Northeast 514 592 37,000  Level Los Angeles Center
07:02PM 36.7842 -114.2303 50° Northeast 511 588 37,000  Level Los Angeles Center
07:03PM 36.8564 -114.0764 60° Northeast 514 592 37,000  Level Los Angeles Center
07:04PM 36.9300 -113.9236 59° Northeast 514 592 37,000  Level Los Angeles Center
07:05PM 37.0042 -113.7714 59° Northeast 513 590 37,000  Level Los Angeles Center
07:06PM 37.0778 -113.6181 59° Northeast 512 589 37,000  Level Los Angeles Center
07:07PM 37.1656 -113.4314 59° Northeast 515 593 37,000  Level Los Angeles Center
07:08PM 37.2381 -113.2767 59° Northeast 517 595 37,000  Level Los Angeles Center
07:09PM 37.3103 -113.1214 60° Northeast 517 595 37,000  Level Los Angeles Center
07:10PM 37.3825 -112.9656 60° Northeast 519 597 37,000  Level Los Angeles Center
07:11PM 37.4519 -112.8114 60° Northeast 519 597 37,000  Level Salt Lake Center
07:12PM 37.5386 -112.6278 59° Northeast 522 601 37,000  Level Salt Lake Center
07:13PM 37.6097 -112.4750 60° Northeast 516 594 37,000  Level Salt Lake Center
07:14PM 37.6811 -112.3203 60° Northeast 514 592 37,000  Level Salt Lake Center
07:15PM 37.7628 -112.1739 55° Northeast 512 589 37,000  Level Salt Lake Center
07:16PM 37.8308 -112.0161 61° Northeast 514 592 37,000  Level Salt Lake Center
07:17PM 37.8886 -111.8122 70° East 514 592 37,000  Level Denver Center
07:18PM 37.9369 -111.6433 70° East 513 590 37,000  Level Denver Center
07:19PM 37.9864 -111.4753 69° East 510 587 37,000  Level Salt Lake Center
07:20PM 38.0353 -111.3044 70° East 515 593 37,000  Level Salt Lake Center
07:21PM 38.0856 -111.1350 69° East 516 594 37,000  Level Salt Lake Center
07:22PM 38.1358 -110.9650 69° East 515 593 37,000  Level Salt Lake Center
07:23PM 38.1942 -110.7719 69° East 515 593 37,000  Level Salt Lake Center
07:24PM 38.2486 -110.6111 67° East 516 594 37,000  Level Salt Lake Center
07:26PM 38.3356 -110.4411 57° Northeast 516 594 37,000  Level Denver Center
07:27PM 38.4122 -110.2958 56° Northeast 516 594 37,000  Level Salt Lake Center
07:28PM 38.4875 -110.1511 56° Northeast 514 592 37,000  Level Salt Lake Center
07:29PM 38.5775 -109.9831 56° Northeast 514 592 37,000  Level Salt Lake Center
07:30PM 38.6672 -109.8514 49° Northeast 513 590 37,000  Level Salt Lake Center
07:31PM 38.7783 -109.7039 46° Northeast 515 593 37,000  Level Salt Lake Center
07:32PM 38.8731 -109.5761 46° Northeast 516 594 37,000  Level Salt Lake Center
07:32PM 38.9022 -109.5297 51° Northeast 520 598 37,000  Level Denver Center
07:33PM 39.0286 -109.3603 46° Northeast 514 592 37,000  Level Denver Center
07:34PM 39.1381 -109.2136 46° Northeast 513 590 37,000  Level Denver Center
07:35PM 39.2314 -109.0867 46° Northeast 510 587 37,000  Level Denver Center
07:37PM 39.3869 -108.8750 46° Northeast 514 592 37,000  Level Salt Lake Center
07:38PM 39.4494 -108.7881 47° Northeast 519 597 37,000  Level Denver Center
07:39PM 39.5567 -108.6364 47° Northeast 521 600 37,000  Level Denver Center
07:40PM 39.6508 -108.5083 46° Northeast 523 602 37,000  Level Denver Center
07:41PM 39.7614 -108.3564 47° Northeast 525 604 37,000  Level Denver Center
07:42PM 39.8572 -108.2242 47° Northeast 524 603 37,000  Level Denver Center
07:43PM 39.9656 -108.0706 47° Northeast 512 589 37,000  Level Denver Center
07:44PM 40.0583 -107.9375 48° Northeast 513 590 37,000  Level Denver Center
07:45PM 40.1433 -107.7544 59° Northeast 526 605 37,000  Level Denver Center
07:46PM 40.2122 -107.5953 60° Northeast 525 604 37,000  Level Denver Center
07:47PM 40.2922 -107.4103 60° Northeast 524 603 37,000  Level Denver Center
07:48PM 40.3614 -107.2517 60° Northeast 524 603 37,000  Level Denver Center
07:49PM 40.4419 -107.0667 60° Northeast 524 603 37,000  Level Denver Center
07:50PM 40.5014 -106.9275 61° Northeast 522 601 37,000  Level Denver Center
07:51PM 40.5869 -106.7275 61° Northeast 521 600 37,000  Level Denver Center
07:52PM 40.6586 -106.5608 60° Northeast 523 602 37,000  Level Denver Center
07:53PM 40.7233 -106.4044 61° Northeast 519 597 37,000  Level Denver Center
07:54PM 40.7969 -106.2244 62° Northeast 513 590 37,000  Level Denver Center
07:55PM 40.8753 -106.0411 60° Northeast 525 604 37,000  Level Denver Center
07:56PM 40.9436 -105.8742 62° Northeast 521 600 37,000  Level Denver Center
07:57PM 41.0117 -105.7036 62° Northeast 520 598 37,000  Level Denver Center
07:58PM 41.0358 -105.4589 82° East 520 598 37,000  Level Denver Center
07:59PM 41.0517 -105.2803 83° East 513 590 37,000  Level Denver Center
08:00PM 41.0681 -105.0686 84° East 514 592 37,000  Level Denver Center
08:01PM 41.0833 -104.8875 84° East 519 597 37,000  Level Denver Center
08:03PM 41.0886 -104.7097 88° East 511 588 37,000  Level Denver Center
08:04PM 41.0939 -104.4958 88° East 516 594 37,000  Level Denver Center
08:05PM 41.0992 -104.3211 88° East 499 574 37,000  Level Denver Center
08:06PM 41.1067 -104.1117 87° East 509 586 37,000  Level Denver Center
08:07PM 41.1117 -103.9317 88° East 512 589 37,000  Level Denver Center
08:08PM 41.1192 -103.7214 87° East 513 590 37,000  Level Denver Center
08:09PM 41.1458 -103.5436 79° East 519 597 37,000  Level Denver Center
08:10PM 41.1867 -103.3406 75° East 514 592 37,000  Level Denver Center
08:11PM 41.2231 -103.1628 75° East 520 598 37,000  Level Denver Center
08:12PM 41.2639 -102.9586 75° East 516 594 37,000  Level Denver Center
08:13PM 41.2969 -102.7844 76° East 512 589 37,000  Level Denver Center
08:14PM 41.3375 -102.5808 75° East 509 586 37,000  Level Denver Center
08:15PM 41.3764 -102.3772 76° East 508 585 37,000  Level Denver Center
08:16PM 41.4156 -102.1756 75° East 505 581 37,000  Level Denver Center
08:17PM 41.4478 -102.0003 76° East 507 583 37,000  Level Denver Center
08:18PM 41.4867 -101.7947 76° East 510 587 37,000  Level Denver Center
08:19PM 41.5197 -101.6181 76° East 511 588 37,000  Level Denver Center
08:20PM 41.5578 -101.4122 76° East 510 587 37,000  Level Denver Center
08:21PM 41.5894 -101.2361 76° East 509 586 37,000  Level Denver Center
08:22PM 41.6219 -101.0597 76° East 510 587 37,000  Level Denver Center
08:23PM 41.6567 -100.8556 77° East 505 581 37,000  Level Denver Center
08:24PM 41.6881 -100.6803 76° East 505 581 37,000  Level Denver Center
08:25PM 41.7236 -100.4786 77° East 500 575 37,000 240 Level Denver Center
08:26PM 41.7525 -100.3008 78° East 506 582 37,600 720 Climbing Denver Center
08:27PM 41.7883 -100.0922 77° East 513 590 38,500 660 Climbing Denver Center
08:29PM 41.8194 -99.9142 77° East 514 592 39,000 240 Climbing Denver Center
08:30PM 41.8528 -99.7103 78° East 515 593 39,000  Level Denver Center
08:31PM 41.8833 -99.5222 78° East 515 593 39,000  Level Denver Center
08:32PM 41.9150 -99.3350 77° East 512 589 39,000  Level Denver Center
08:33PM 41.9439 -99.1492 78° East 507 583 39,000  Level Denver Center
08:34PM 41.9744 -98.9644 77° East 507 583 39,000  Level Minneapolis Center
08:35PM 42.0089 -98.7419 78° East 506 582 39,000  Level Minneapolis Center
08:36PM 42.0389 -98.5544 78° East 509 586 39,000  Level Minneapolis Center
08:37PM 42.0672 -98.3697 78° East 505 581 39,000  Level Minneapolis Center
08:38PM 42.0950 -98.1839 79° East 505 581 39,000  Level Minneapolis Center
08:39PM 42.1228 -97.9981 79° East 505 581 39,000  Level Minneapolis Center
08:40PM 42.1514 -97.8039 79° East 505 581 39,000  Level Minneapolis Center
08:41PM 42.1792 -97.6186 79° East 505 581 39,000  Level Minneapolis Center
08:42PM 42.2061 -97.4333 79° East 503 579 39,000  Level Minneapolis Center
08:43PM 42.2333 -97.2453 79° East 507 583 39,000  Level Minneapolis Center
08:44PM 42.2644 -97.0217 79° East 505 581 39,000  Level Minneapolis Center
08:45PM 42.2903 -96.8372 79° East 502 578 39,000  Level Minneapolis Center
08:46PM 42.3156 -96.6481 80° East 506 582 39,000  Level Minneapolis Center
08:47PM 42.3414 -96.4603 79° East 506 582 39,000  Level Minneapolis Center
08:48PM 42.3658 -96.2728 80° East 506 582 39,000  Level Minneapolis Center
08:49PM 42.3911 -96.0847 80° East 506 582 39,000  Level Minneapolis Center
08:50PM 42.4156 -95.8942 80° East 510 587 39,000  Level Minneapolis Center
08:51PM 42.4325 -95.6658 84° East 510 587 39,000  Level Minneapolis Center
08:52PM 42.4392 -95.4739 87° East 510 587 39,000  Level Minneapolis Center
08:53PM 42.4475 -95.2842 87° East 507 583 39,000  Level Minneapolis Center
08:54PM 42.4533 -95.0900 88° East 512 589 39,000  Level Minneapolis Center
08:55PM 42.4606 -94.8989 87° East 510 587 39,000  Level Minneapolis Center
08:56PM 42.4672 -94.7075 87° East 510 587 39,000  Level Minneapolis Center
08:58PM 42.4728 -94.4894 88° East 509 586 39,000  Level Minneapolis Center
08:59PM 42.4781 -94.3003 88° East 508 585 39,000  Level Minneapolis Center
09:00PM 42.4844 -94.1125 87° East 507 583 39,000  Level Minneapolis Center
09:01PM 42.4892 -93.9214 88° East 510 587 39,000  Level Minneapolis Center
09:02PM 42.4950 -93.6917 88° East 514 592 39,000  Level Minneapolis Center
09:03PM 42.4994 -93.4997 88° East 515 593 39,000  Level Minneapolis Center
09:04PM 42.5039 -93.3078 88° East 516 594 39,000  Level Minneapolis Center
09:05PM 42.5083 -93.1158 88° East 515 593 39,000  Level Minneapolis Center
09:06PM 42.5125 -92.8842 89° East 516 594 39,000  Level Chicago Center
09:07PM 42.5150 -92.6931 89° East 514 592 39,000  Level Chicago Center
09:08PM 42.5181 -92.5033 89° East 511 588 39,000 -60 Level Chicago Center
09:09PM 42.5208 -92.2750 89° East 511 588 38,900 -540 Descending Chicago Center
09:10PM 42.5228 -92.0886 89° East 505 581 37,900 -960 Descending Chicago Center
09:12PM 42.5256 -91.7142 89° East 507 583 36,000 -1,200 Descending Chicago Center
09:13PM 42.5267 -91.4900 90° East 509 586 34,300 -1,500 Descending Chicago Center
09:14PM 42.5258 -91.3000 90° East 514 592 32,900 -1,200 Descending Chicago Center
09:15PM 42.5264 -91.1094 90° East 514 592 31,900 -960 Descending Chicago Center
09:16PM 42.5261 -90.9192 90° East 514 592 31,000 -1,020 Descending Chicago Center
09:17PM 42.5247 -90.6911 90° East 513 590 29,800 -1,080 Descending Chicago Center
09:18PM 42.5250 -90.5014 90° East 509 586 28,800 -1,020 Descending Chicago Center
09:19PM 42.5208 -90.3167 92° East 500 575 27,800 -1,020 Descending Chicago Center
09:20PM 42.5183 -90.1306 91° East 493 567 26,800 -900 Descending Chicago Center
09:21PM 42.5106 -89.9572 93° East 478 550 26,000 -960 Descending Chicago Center
09:22PM 42.4922 -89.7528 97° East 461 531 24,900 -1,380 Descending Chicago Center
09:23PM 42.4764 -89.5836 97° East 457 526 23,200 -1,740 Descending Chicago Center
09:25PM 42.4608 -89.4203 97° East 441 507 21,400 -1,980 Descending Chicago Center
09:26PM 42.4478 -89.2669 97° East 417 480 19,200 -1,980 Descending Chicago Center
09:27PM 42.4342 -89.1192 97° East 400 460 17,400 -2,040 Descending Chicago Center
09:28PM 42.4181 -88.9506 97° East 391 450 15,000 -2,160 Descending Chicago Center
09:29PM 42.4050 -88.8097 97° East 381 438 13,000 -1,860 Descending Chicago Center
09:30PM 42.3925 -88.6744 97° East 367 422 11,300 -1,560 Descending Chicago Center
09:31PM 42.3803 -88.5539 98° East 332 382 9,800 -1,140 Descending Chicago Center
09:32PM 42.3506 -88.4544 112° Southeast 299 344 9,000 -900 Descending Chicago Center
09:33PM 42.3003 -88.3700 129° Southeast 293 337 8,000 -1,020 Descending Chicago Center
09:34PM 42.2439 -88.2711 128° Southeast 288 331 7,000 -840 Descending Chicago Center
09:35PM 42.1961 -88.1894 128° Southeast 281 323 6,300 -840 Descending Chicago Center
09:36PM 42.1542 -88.1122 126° Southeast 267 307 5,300 -1,200 Descending Chicago Center
09:37PM 42.1167 -88.0667 138° Southeast 213 245 4,200 -1,380 Descending Chicago TRACON
09:38PM 42.0667 -88.0167 143° Southeast 189 217 2,800 -1,200 Descending Chicago TRACON
09:39PM 42.0333 -87.9833 143° Southeast 156 180 1,800 -900 Descending Chicago TRACON
09:40PM 42.0000 -87.9500 143° Southeast 146 168 1,100 -780 Descending Chicago TRACON